sensor_id;sensor_type;location;lat;lon;timestamp;temperature;humidity
41922;DHT22;27609;51.002;5.354;2023-07-02T00:01:03;16.80;99.90
41922;DHT22;27609;51.002;5.354;2023-07-02T00:03:29;16.70;99.90
41922;DHT22;27609;51.002;5.354;2023-07-02T00:05:55;16.70;99.90
41922;DHT22;27609;51.002;5.354;2023-07-02T00:08:22;16.60;99.90
41922;DHT22;27609;51.002;5.354;2023-07-02T00:10:48;16.60;99.90
41922;DHT22;27609;51.002;5.354;2023-07-02T00:13:14;16.60;99.90
41922;DHT22;27609;51.002;5.354;2023-07-02T00:15:40;16.60;99.90
41922;DHT22;27609;51.002;5.354;2023-07-02T00:18:06;16.50;99.90
41922;DHT22;27609;51.002;5.354;2023-07-02T00:20:32;16.40;99.90
41922;DHT22;27609;51.002;5.354;2023-07-02T00:23:03;16.50;99.90
41922;DHT22;27609;51.002;5.354;2023-07-02T00:25:29;16.50;99.90
41922;DHT22;27609;51.002;5.354;2023-07-02T00:27:55;16.50;99.90
41922;DHT22;27609;51.002;5.354;2023-07-02T00:30:21;16.50;99.90
41922;DHT22;27609;51.002;5.354;2023-07-02T00:32:46;16.50;99.90
41922;DHT22;27609;51.002;5.354;2023-07-02T00:35:12;16.40;99.90
41922;DHT22;27609;51.002;5.354;2023-07-02T00:37:37;16.40;99.90
41922;DHT22;27609;51.002;5.354;2023-07-02T00:40:04;16.40;99.90
41922;DHT22;27609;51.002;5.354;2023-07-02T00:42:29;16.40;99.90
41922;DHT22;27609;51.002;5.354;2023-07-02T00:44:56;16.40;99.90
41922;DHT22;27609;51.002;5.354;2023-07-02T00:47:26;16.40;99.90
41922;DHT22;27609;51.002;5.354;2023-07-02T00:49:51;16.40;99.90
41922;DHT22;27609;51.002;5.354;2023-07-02T00:52:17;16.50;99.90
41922;DHT22;27609;51.002;5.354;2023-07-02T00:54:45;16.40;99.90
41922;DHT22;27609;51.002;5.354;2023-07-02T00:57:11;16.40;99.90
41922;DHT22;27609;51.002;5.354;2023-07-02T00:59:37;16.40;99.90
41922;DHT22;27609;51.002;5.354;2023-07-02T01:02:04;16.30;99.90
41922;DHT22;27609;51.002;5.354;2023-07-02T01:04:30;16.30;99.90
41922;DHT22;27609;51.002;5.354;2023-07-02T01:06:56;16.20;99.90
41922;DHT22;27609;51.002;5.354;2023-07-02T01:09:23;16.20;99.90
41922;DHT22;27609;51.002;5.354;2023-07-02T01:12:01;16.30;99.90
41922;DHT22;27609;51.002;5.354;2023-07-02T01:14:38;16.30;99.90
41922;DHT22;27609;51.002;5.354;2023-07-02T01:17:05;16.40;99.90
41922;DHT22;27609;51.002;5.354;2023-07-02T01:19:50;16.40;99.90
41922;DHT22;27609;51.002;5.354;2023-07-02T01:22:20;16.40;99.90
41922;DHT22;27609;51.002;5.354;2023-07-02T01:24:46;16.40;99.90
41922;DHT22;27609;51.002;5.354;2023-07-02T01:27:13;16.50;99.90
41922;DHT22;27609;51.002;5.354;2023-07-02T01:29:40;16.50;99.90
41922;DHT22;27609;51.002;5.354;2023-07-02T01:32:06;16.40;99.90
41922;DHT22;27609;51.002;5.354;2023-07-02T01:34:32;16.50;99.90
41922;DHT22;27609;51.002;5.354;2023-07-02T01:36:58;16.40;99.90
41922;DHT22;27609;51.002;5.354;2023-07-02T01:39:23;16.40;99.90
41922;DHT22;27609;51.002;5.354;2023-07-02T01:41:53;16.40;99.90
41922;DHT22;27609;51.002;5.354;2023-07-02T01:44:20;16.50;99.90
41922;DHT22;27609;51.002;5.354;2023-07-02T01:46:47;16.60;99.90
41922;DHT22;27609;51.002;5.354;2023-07-02T01:49:19;16.60;99.90
41922;DHT22;27609;51.002;5.354;2023-07-02T01:51:52;16.50;99.90
41922;DHT22;27609;51.002;5.354;2023-07-02T01:54:18;16.50;99.90
41922;DHT22;27609;51.002;5.354;2023-07-02T01:56:44;16.60;99.90
41922;DHT22;27609;51.002;5.354;2023-07-02T01:59:10;16.50;99.90
41922;DHT22;27609;51.002;5.354;2023-07-02T02:01:36;16.50;99.90
41922;DHT22;27609;51.002;5.354;2023-07-02T02:04:06;16.50;99.90
41922;DHT22;27609;51.002;5.354;2023-07-02T02:06:32;16.40;99.90
41922;DHT22;27609;51.002;5.354;2023-07-02T02:08:58;16.40;99.90
41922;DHT22;27609;51.002;5.354;2023-07-02T02:11:23;16.40;99.90
41922;DHT22;27609;51.002;5.354;2023-07-02T02:13:49;16.40;99.90
41922;DHT22;27609;51.002;5.354;2023-07-02T02:16:15;16.60;99.90
41922;DHT22;27609;51.002;5.354;2023-07-02T02:18:40;16.60;99.90
41922;DHT22;27609;51.002;5.354;2023-07-02T02:21:06;16.60;99.90
41922;DHT22;27609;51.002;5.354;2023-07-02T02:23:32;16.60;99.90
41922;DHT22;27609;51.002;5.354;2023-07-02T02:25:58;16.50;99.90
41922;DHT22;27609;51.002;5.354;2023-07-02T02:28:24;16.50;99.90
41922;DHT22;27609;51.002;5.354;2023-07-02T02:30:49;16.50;99.90
41922;DHT22;27609;51.002;5.354;2023-07-02T02:33:15;16.50;99.90
41922;DHT22;27609;51.002;5.354;2023-07-02T02:35:41;16.40;99.90
41922;DHT22;27609;51.002;5.354;2023-07-02T02:38:06;16.40;99.90
41922;DHT22;27609;51.002;5.354;2023-07-02T02:40:32;16.50;99.90
41922;DHT22;27609;51.002;5.354;2023-07-02T02:42:58;16.50;99.90
41922;DHT22;27609;51.002;5.354;2023-07-02T02:45:23;16.50;99.90
41922;DHT22;27609;51.002;5.354;2023-07-02T02:47:49;16.50;99.90
41922;DHT22;27609;51.002;5.354;2023-07-02T02:50:15;16.50;99.90
41922;DHT22;27609;51.002;5.354;2023-07-02T02:52:40;16.40;99.90
41922;DHT22;27609;51.002;5.354;2023-07-02T02:55:07;16.60;99.90
41922;DHT22;27609;51.002;5.354;2023-07-02T02:57:33;16.60;99.90
41922;DHT22;27609;51.002;5.354;2023-07-02T02:59:59;16.60;99.90
41922;DHT22;27609;51.002;5.354;2023-07-02T03:02:25;16.70;99.90
41922;DHT22;27609;51.002;5.354;2023-07-02T03:04:51;16.70;99.90
41922;DHT22;27609;51.002;5.354;2023-07-02T03:07:17;16.60;99.90
41922;DHT22;27609;51.002;5.354;2023-07-02T03:09:43;16.50;99.90
41922;DHT22;27609;51.002;5.354;2023-07-02T03:12:09;16.40;99.90
41922;DHT22;27609;51.002;5.354;2023-07-02T03:14:34;16.50;99.90
41922;DHT22;27609;51.002;5.354;2023-07-02T03:17:00;16.40;99.90
41922;DHT22;27609;51.002;5.354;2023-07-02T03:19:26;16.50;99.90
41922;DHT22;27609;51.002;5.354;2023-07-02T03:21:51;16.50;99.90
41922;DHT22;27609;51.002;5.354;2023-07-02T03:24:17;16.40;99.90
41922;DHT22;27609;51.002;5.354;2023-07-02T03:26:43;16.30;99.90
41922;DHT22;27609;51.002;5.354;2023-07-02T03:29:09;16.20;99.90
41922;DHT22;27609;51.002;5.354;2023-07-02T03:31:35;16.20;99.90
41922;DHT22;27609;51.002;5.354;2023-07-02T03:34:07;16.30;99.90
41922;DHT22;27609;51.002;5.354;2023-07-02T03:36:33;16.10;99.90
41922;DHT22;27609;51.002;5.354;2023-07-02T03:38:59;16.20;99.90
41922;DHT22;27609;51.002;5.354;2023-07-02T03:41:24;16.20;99.90
41922;DHT22;27609;51.002;5.354;2023-07-02T03:43:50;16.30;99.90
41922;DHT22;27609;51.002;5.354;2023-07-02T03:46:16;16.30;99.90
41922;DHT22;27609;51.002;5.354;2023-07-02T03:48:42;16.40;99.90
41922;DHT22;27609;51.002;5.354;2023-07-02T03:51:07;16.40;99.90
41922;DHT22;27609;51.002;5.354;2023-07-02T03:53:33;16.50;99.90
41922;DHT22;27609;51.002;5.354;2023-07-02T03:55:58;16.70;99.90
41922;DHT22;27609;51.002;5.354;2023-07-02T03:58:24;16.60;99.90
41922;DHT22;27609;51.002;5.354;2023-07-02T04:00:50;16.60;99.90
41922;DHT22;27609;51.002;5.354;2023-07-02T04:03:18;16.40;99.90
41922;DHT22;27609;51.002;5.354;2023-07-02T04:05:44;16.30;99.90
41922;DHT22;27609;51.002;5.354;2023-07-02T04:08:10;16.30;99.90
41922;DHT22;27609;51.002;5.354;2023-07-02T04:10:36;16.20;99.90
41922;DHT22;27609;51.002;5.354;2023-07-02T04:13:02;16.30;99.90
41922;DHT22;27609;51.002;5.354;2023-07-02T04:15:28;16.20;99.90
41922;DHT22;27609;51.002;5.354;2023-07-02T04:17:54;16.10;99.90
41922;DHT22;27609;51.002;5.354;2023-07-02T04:20:20;16.10;99.90
41922;DHT22;27609;51.002;5.354;2023-07-02T04:22:46;16.00;99.90
41922;DHT22;27609;51.002;5.354;2023-07-02T04:25:13;16.00;99.90
41922;DHT22;27609;51.002;5.354;2023-07-02T04:27:42;15.90;99.90
41922;DHT22;27609;51.002;5.354;2023-07-02T04:30:11;15.80;99.90
41922;DHT22;27609;51.002;5.354;2023-07-02T04:32:38;15.80;99.90
41922;DHT22;27609;51.002;5.354;2023-07-02T04:35:09;15.70;99.90
41922;DHT22;27609;51.002;5.354;2023-07-02T04:37:36;15.70;99.90
41922;DHT22;27609;51.002;5.354;2023-07-02T04:40:02;15.60;99.90
41922;DHT22;27609;51.002;5.354;2023-07-02T04:42:38;15.60;99.90
41922;DHT22;27609;51.002;5.354;2023-07-02T04:45:05;15.60;99.90
41922;DHT22;27609;51.002;5.354;2023-07-02T04:47:31;15.70;99.90
41922;DHT22;27609;51.002;5.354;2023-07-02T04:49:57;15.80;99.90
41922;DHT22;27609;51.002;5.354;2023-07-02T04:52:23;15.90;99.90
41922;DHT22;27609;51.002;5.354;2023-07-02T04:54:48;16.20;99.90
41922;DHT22;27609;51.002;5.354;2023-07-02T04:57:14;16.20;99.90
41922;DHT22;27609;51.002;5.354;2023-07-02T04:59:41;16.30;99.90
41922;DHT22;27609;51.002;5.354;2023-07-02T05:02:07;16.40;99.90
41922;DHT22;27609;51.002;5.354;2023-07-02T05:04:33;16.30;99.90
41922;DHT22;27609;51.002;5.354;2023-07-02T05:06:59;16.30;99.90
41922;DHT22;27609;51.002;5.354;2023-07-02T05:09:25;16.20;99.90
41922;DHT22;27609;51.002;5.354;2023-07-02T05:11:51;16.10;99.90
41922;DHT22;27609;51.002;5.354;2023-07-02T05:14:16;16.10;99.90
41922;DHT22;27609;51.002;5.354;2023-07-02T05:16:43;16.10;99.90
41922;DHT22;27609;51.002;5.354;2023-07-02T05:19:09;16.20;99.90
41922;DHT22;27609;51.002;5.354;2023-07-02T05:21:35;16.30;99.90
41922;DHT22;27609;51.002;5.354;2023-07-02T05:24:00;16.30;99.90
41922;DHT22;27609;51.002;5.354;2023-07-02T05:26:26;16.40;99.90
41922;DHT22;27609;51.002;5.354;2023-07-02T05:28:52;16.30;99.90
41922;DHT22;27609;51.002;5.354;2023-07-02T05:31:18;16.20;99.90
41922;DHT22;27609;51.002;5.354;2023-07-02T05:33:44;16.20;99.90
41922;DHT22;27609;51.002;5.354;2023-07-02T05:36:09;16.10;99.90
41922;DHT22;27609;51.002;5.354;2023-07-02T05:38:35;16.10;99.90
41922;DHT22;27609;51.002;5.354;2023-07-02T05:41:02;16.20;99.90
41922;DHT22;27609;51.002;5.354;2023-07-02T05:43:28;16.40;99.90
41922;DHT22;27609;51.002;5.354;2023-07-02T05:45:54;16.50;99.90
41922;DHT22;27609;51.002;5.354;2023-07-02T05:48:20;16.60;99.90
41922;DHT22;27609;51.002;5.354;2023-07-02T05:50:45;16.60;99.90
41922;DHT22;27609;51.002;5.354;2023-07-02T05:53:11;16.60;99.90
41922;DHT22;27609;51.002;5.354;2023-07-02T05:55:37;16.80;99.90
41922;DHT22;27609;51.002;5.354;2023-07-02T05:58:03;17.00;99.90
41922;DHT22;27609;51.002;5.354;2023-07-02T06:00:29;17.20;99.90
41922;DHT22;27609;51.002;5.354;2023-07-02T06:02:54;17.40;99.90
41922;DHT22;27609;51.002;5.354;2023-07-02T06:05:20;17.40;99.90
41922;DHT22;27609;51.002;5.354;2023-07-02T06:07:46;17.60;99.90
41922;DHT22;27609;51.002;5.354;2023-07-02T06:10:12;17.60;99.90
41922;DHT22;27609;51.002;5.354;2023-07-02T06:12:38;17.70;99.90
41922;DHT22;27609;51.002;5.354;2023-07-02T06:15:04;17.80;99.90
41922;DHT22;27609;51.002;5.354;2023-07-02T06:17:30;17.90;99.90
41922;DHT22;27609;51.002;5.354;2023-07-02T06:19:56;17.80;99.90
41922;DHT22;27609;51.002;5.354;2023-07-02T06:22:23;17.60;99.90
41922;DHT22;27609;51.002;5.354;2023-07-02T06:24:49;18.00;99.90
41922;DHT22;27609;51.002;5.354;2023-07-02T06:27:14;18.40;99.90
41922;DHT22;27609;51.002;5.354;2023-07-02T06:29:40;18.80;99.90
41922;DHT22;27609;51.002;5.354;2023-07-02T06:32:06;19.10;99.90
41922;DHT22;27609;51.002;5.354;2023-07-02T06:34:32;19.10;99.90
41922;DHT22;27609;51.002;5.354;2023-07-02T06:36:57;19.10;99.90
41922;DHT22;27609;51.002;5.354;2023-07-02T06:39:23;19.00;99.90
41922;DHT22;27609;51.002;5.354;2023-07-02T06:41:49;18.90;99.90
41922;DHT22;27609;51.002;5.354;2023-07-02T06:44:14;18.80;99.90
41922;DHT22;27609;51.002;5.354;2023-07-02T06:46:40;19.00;99.90
41922;DHT22;27609;51.002;5.354;2023-07-02T06:49:06;18.70;99.90
41922;DHT22;27609;51.002;5.354;2023-07-02T06:51:32;18.90;99.90
41922;DHT22;27609;51.002;5.354;2023-07-02T06:53:59;19.30;99.90
41922;DHT22;27609;51.002;5.354;2023-07-02T06:56:25;19.10;99.90
41922;DHT22;27609;51.002;5.354;2023-07-02T06:58:50;19.10;99.90
41922;DHT22;27609;51.002;5.354;2023-07-02T07:01:16;19.30;99.90
41922;DHT22;27609;51.002;5.354;2023-07-02T07:03:42;19.20;99.90
41922;DHT22;27609;51.002;5.354;2023-07-02T07:06:07;19.00;99.90
41922;DHT22;27609;51.002;5.354;2023-07-02T07:08:36;19.60;99.90
41922;DHT22;27609;51.002;5.354;2023-07-02T07:11:02;19.50;99.90
41922;DHT22;27609;51.002;5.354;2023-07-02T07:13:27;19.50;99.90
41922;DHT22;27609;51.002;5.354;2023-07-02T07:15:54;19.00;99.90
41922;DHT22;27609;51.002;5.354;2023-07-02T07:18:20;18.90;99.90
41922;DHT22;27609;51.002;5.354;2023-07-02T07:20:46;18.90;99.90
41922;DHT22;27609;51.002;5.354;2023-07-02T07:23:12;19.20;99.90
41922;DHT22;27609;51.002;5.354;2023-07-02T07:25:37;20.00;99.90
41922;DHT22;27609;51.002;5.354;2023-07-02T07:28:03;20.30;99.90
41922;DHT22;27609;51.002;5.354;2023-07-02T07:30:29;20.50;99.90
41922;DHT22;27609;51.002;5.354;2023-07-02T07:32:55;20.10;99.90
41922;DHT22;27609;51.002;5.354;2023-07-02T07:35:21;19.50;99.90
41922;DHT22;27609;51.002;5.354;2023-07-02T07:37:47;19.50;99.90
41922;DHT22;27609;51.002;5.354;2023-07-02T07:40:13;19.90;99.90
41922;DHT22;27609;51.002;5.354;2023-07-02T07:42:40;20.80;99.90
41922;DHT22;27609;51.002;5.354;2023-07-02T07:45:06;21.10;99.90
41922;DHT22;27609;51.002;5.354;2023-07-02T07:47:32;20.80;99.90
41922;DHT22;27609;51.002;5.354;2023-07-02T07:49:58;20.50;99.90
41922;DHT22;27609;51.002;5.354;2023-07-02T07:52:23;20.50;99.90
41922;DHT22;27609;51.002;5.354;2023-07-02T07:54:49;20.50;99.90
41922;DHT22;27609;51.002;5.354;2023-07-02T07:57:15;21.60;99.90
41922;DHT22;27609;51.002;5.354;2023-07-02T07:59:40;22.80;99.90
41922;DHT22;27609;51.002;5.354;2023-07-02T08:02:06;22.30;99.90
41922;DHT22;27609;51.002;5.354;2023-07-02T08:04:32;21.60;99.90
41922;DHT22;27609;51.002;5.354;2023-07-02T08:06:57;20.80;99.90
41922;DHT22;27609;51.002;5.354;2023-07-02T08:09:24;20.70;99.90
41922;DHT22;27609;51.002;5.354;2023-07-02T08:11:50;20.80;99.90
41922;DHT22;27609;51.002;5.354;2023-07-02T08:14:16;21.20;99.90
41922;DHT22;27609;51.002;5.354;2023-07-02T08:16:44;21.90;99.90
41922;DHT22;27609;51.002;5.354;2023-07-02T08:19:10;22.80;99.90
41922;DHT22;27609;51.002;5.354;2023-07-02T08:21:36;23.20;99.90
41922;DHT22;27609;51.002;5.354;2023-07-02T08:24:02;24.10;99.90
41922;DHT22;27609;51.002;5.354;2023-07-02T08:26:28;24.10;99.90
41922;DHT22;27609;51.002;5.354;2023-07-02T08:28:54;23.60;99.90
41922;DHT22;27609;51.002;5.354;2023-07-02T08:31:20;22.50;99.90
41922;DHT22;27609;51.002;5.354;2023-07-02T08:33:45;22.10;99.90
41922;DHT22;27609;51.002;5.354;2023-07-02T08:36:11;22.30;99.90
41922;DHT22;27609;51.002;5.354;2023-07-02T08:38:39;22.60;99.90
41922;DHT22;27609;51.002;5.354;2023-07-02T08:41:07;23.50;99.90
41922;DHT22;27609;51.002;5.354;2023-07-02T08:43:33;23.50;99.90
41922;DHT22;27609;51.002;5.354;2023-07-02T08:46:01;24.70;99.90
41922;DHT22;27609;51.002;5.354;2023-07-02T08:48:27;27.00;99.90
41922;DHT22;27609;51.002;5.354;2023-07-02T08:50:57;28.20;99.90
41922;DHT22;27609;51.002;5.354;2023-07-02T08:53:23;28.90;99.90
41922;DHT22;27609;51.002;5.354;2023-07-02T08:55:58;28.80;99.90
41922;DHT22;27609;51.002;5.354;2023-07-02T08:58:24;29.30;99.90
41922;DHT22;27609;51.002;5.354;2023-07-02T09:01:06;27.30;99.90
41922;DHT22;27609;51.002;5.354;2023-07-02T09:03:32;26.10;99.90
41922;DHT22;27609;51.002;5.354;2023-07-02T09:05:58;24.90;99.90
41922;DHT22;27609;51.002;5.354;2023-07-02T09:08:25;23.90;99.90
41922;DHT22;27609;51.002;5.354;2023-07-02T09:10:51;23.30;99.90
41922;DHT22;27609;51.002;5.354;2023-07-02T09:13:17;23.00;99.90
41922;DHT22;27609;51.002;5.354;2023-07-02T09:15:42;22.80;99.90
41922;DHT22;27609;51.002;5.354;2023-07-02T09:18:18;23.10;99.90
41922;DHT22;27609;51.002;5.354;2023-07-02T09:20:44;23.70;99.90
41922;DHT22;27609;51.002;5.354;2023-07-02T09:23:10;25.60;99.90
41922;DHT22;27609;51.002;5.354;2023-07-02T09:25:40;27.60;99.90
41922;DHT22;27609;51.002;5.354;2023-07-02T09:28:20;28.30;99.10
41922;DHT22;27609;51.002;5.354;2023-07-02T09:31:04;26.40;97.20
41922;DHT22;27609;51.002;5.354;2023-07-02T09:33:30;26.60;99.90
41922;DHT22;27609;51.002;5.354;2023-07-02T09:35:56;26.20;99.90
41922;DHT22;27609;51.002;5.354;2023-07-02T09:38:22;25.00;97.30
41922;DHT22;27609;51.002;5.354;2023-07-02T09:40:52;25.40;99.90
41922;DHT22;27609;51.002;5.354;2023-07-02T09:43:18;26.00;99.90
41922;DHT22;27609;51.002;5.354;2023-07-02T09:45:46;25.30;99.00
41922;DHT22;27609;51.002;5.354;2023-07-02T09:48:16;24.80;98.00
41922;DHT22;27609;51.002;5.354;2023-07-02T09:50:44;25.10;99.90
41922;DHT22;27609;51.002;5.354;2023-07-02T09:53:10;25.70;96.70
41922;DHT22;27609;51.002;5.354;2023-07-02T09:55:41;26.50;98.00
41922;DHT22;27609;51.002;5.354;2023-07-02T09:58:08;27.50;98.50
41922;DHT22;27609;51.002;5.354;2023-07-02T10:00:34;28.00;96.70
41922;DHT22;27609;51.002;5.354;2023-07-02T10:03:00;27.60;94.60
41922;DHT22;27609;51.002;5.354;2023-07-02T10:05:30;25.20;96.10
41922;DHT22;27609;51.002;5.354;2023-07-02T10:07:56;25.00;98.10
41922;DHT22;27609;51.002;5.354;2023-07-02T10:10:30;24.60;97.70
41922;DHT22;27609;51.002;5.354;2023-07-02T10:12:56;24.90;99.00
41922;DHT22;27609;51.002;5.354;2023-07-02T10:15:26;27.00;98.50
41922;DHT22;27609;51.002;5.354;2023-07-02T10:17:58;27.30;95.40
41922;DHT22;27609;51.002;5.354;2023-07-02T10:20:36;26.80;96.00
41922;DHT22;27609;51.002;5.354;2023-07-02T10:23:03;27.00;96.20
41922;DHT22;27609;51.002;5.354;2023-07-02T10:25:31;27.50;95.30
41922;DHT22;27609;51.002;5.354;2023-07-02T10:27:58;29.90;94.10
41922;DHT22;27609;51.002;5.354;2023-07-02T10:30:37;32.00;91.90
41922;DHT22;27609;51.002;5.354;2023-07-02T10:33:08;35.30;85.20
41922;DHT22;27609;51.002;5.354;2023-07-02T10:35:35;36.10;74.40
41922;DHT22;27609;51.002;5.354;2023-07-02T10:38:01;37.50;69.30
41922;DHT22;27609;51.002;5.354;2023-07-02T10:40:26;35.00;73.00
41922;DHT22;27609;51.002;5.354;2023-07-02T10:42:53;35.70;69.20
41922;DHT22;27609;51.002;5.354;2023-07-02T10:45:19;34.40;69.20
41922;DHT22;27609;51.002;5.354;2023-07-02T10:47:45;33.20;70.60
41922;DHT22;27609;51.002;5.354;2023-07-02T10:50:21;31.10;71.10
41922;DHT22;27609;51.002;5.354;2023-07-02T10:52:48;28.40;81.20
41922;DHT22;27609;51.002;5.354;2023-07-02T10:55:18;28.50;78.90
41922;DHT22;27609;51.002;5.354;2023-07-02T10:57:44;26.80;86.10
41922;DHT22;27609;51.002;5.354;2023-07-02T11:00:10;26.50;90.30
41922;DHT22;27609;51.002;5.354;2023-07-02T11:02:40;28.20;85.50
41922;DHT22;27609;51.002;5.354;2023-07-02T11:05:07;28.40;83.10
41922;DHT22;27609;51.002;5.354;2023-07-02T11:07:43;30.00;84.00
41922;DHT22;27609;51.002;5.354;2023-07-02T11:10:10;31.50;78.70
41922;DHT22;27609;51.002;5.354;2023-07-02T11:12:35;30.20;79.50
41922;DHT22;27609;51.002;5.354;2023-07-02T11:15:16;28.80;83.20
41922;DHT22;27609;51.002;5.354;2023-07-02T11:17:45;26.90;90.70
41922;DHT22;27609;51.002;5.354;2023-07-02T11:20:12;26.90;90.60
41922;DHT22;27609;51.002;5.354;2023-07-02T11:22:39;27.30;87.80
41922;DHT22;27609;51.002;5.354;2023-07-02T11:25:19;27.40;85.80
41922;DHT22;27609;51.002;5.354;2023-07-02T11:27:48;25.90;90.70
41922;DHT22;27609;51.002;5.354;2023-07-02T11:30:14;25.80;91.90
41922;DHT22;27609;51.002;5.354;2023-07-02T11:32:50;25.50;94.60
41922;DHT22;27609;51.002;5.354;2023-07-02T11:35:16;25.60;95.10
41922;DHT22;27609;51.002;5.354;2023-07-02T11:37:43;24.90;92.50
41922;DHT22;27609;51.002;5.354;2023-07-02T11:40:09;24.50;93.90
41922;DHT22;27609;51.002;5.354;2023-07-02T11:42:35;23.80;95.00
41922;DHT22;27609;51.002;5.354;2023-07-02T11:45:01;23.50;95.30
41922;DHT22;27609;51.002;5.354;2023-07-02T11:47:27;24.20;95.40
41922;DHT22;27609;51.002;5.354;2023-07-02T11:49:53;24.70;92.60
41922;DHT22;27609;51.002;5.354;2023-07-02T11:52:20;25.40;92.70
41922;DHT22;27609;51.002;5.354;2023-07-02T11:54:46;26.10;92.40
41922;DHT22;27609;51.002;5.354;2023-07-02T11:57:12;27.20;89.30
41922;DHT22;27609;51.002;5.354;2023-07-02T11:59:38;26.80;87.70
41922;DHT22;27609;51.002;5.354;2023-07-02T12:02:04;26.00;90.30
41922;DHT22;27609;51.002;5.354;2023-07-02T12:04:30;25.20;91.10
41922;DHT22;27609;51.002;5.354;2023-07-02T12:06:55;25.00;92.40
41922;DHT22;27609;51.002;5.354;2023-07-02T12:09:21;25.60;92.80
41922;DHT22;27609;51.002;5.354;2023-07-02T12:11:47;25.10;92.60
41922;DHT22;27609;51.002;5.354;2023-07-02T12:14:13;24.20;95.40
41922;DHT22;27609;51.002;5.354;2023-07-02T12:16:38;23.90;94.60
41922;DHT22;27609;51.002;5.354;2023-07-02T12:19:04;23.70;99.90
41922;DHT22;27609;51.002;5.354;2023-07-02T12:21:30;23.50;97.40
41922;DHT22;27609;51.002;5.354;2023-07-02T12:23:55;23.10;99.80
41922;DHT22;27609;51.002;5.354;2023-07-02T12:26:21;23.00;97.70
41922;DHT22;27609;51.002;5.354;2023-07-02T12:28:47;23.20;99.90
41922;DHT22;27609;51.002;5.354;2023-07-02T12:31:12;23.40;99.90
41922;DHT22;27609;51.002;5.354;2023-07-02T12:33:39;24.10;99.00
41922;DHT22;27609;51.002;5.354;2023-07-02T12:36:05;24.60;97.60
41922;DHT22;27609;51.002;5.354;2023-07-02T12:38:31;25.60;96.80
41922;DHT22;27609;51.002;5.354;2023-07-02T12:40:56;25.30;91.30
41922;DHT22;27609;51.002;5.354;2023-07-02T12:43:22;25.70;94.30
41922;DHT22;27609;51.002;5.354;2023-07-02T12:45:48;27.20;90.70
41922;DHT22;27609;51.002;5.354;2023-07-02T12:48:13;27.10;87.40
41922;DHT22;27609;51.002;5.354;2023-07-02T12:50:39;25.60;92.50
41922;DHT22;27609;51.002;5.354;2023-07-02T12:53:05;26.30;94.50
41922;DHT22;27609;51.002;5.354;2023-07-02T12:55:31;26.20;92.10
41922;DHT22;27609;51.002;5.354;2023-07-02T12:57:57;27.10;92.30
41922;DHT22;27609;51.002;5.354;2023-07-02T13:00:23;27.10;92.10
41922;DHT22;27609;51.002;5.354;2023-07-02T13:02:49;26.10;93.50
41922;DHT22;27609;51.002;5.354;2023-07-02T13:05:14;26.50;94.80
41922;DHT22;27609;51.002;5.354;2023-07-02T13:07:40;27.30;93.10
41922;DHT22;27609;51.002;5.354;2023-07-02T13:10:06;27.40;93.20
41922;DHT22;27609;51.002;5.354;2023-07-02T13:12:32;26.90;94.50
41922;DHT22;27609;51.002;5.354;2023-07-02T13:14:58;27.00;93.70
41922;DHT22;27609;51.002;5.354;2023-07-02T13:17:24;26.90;92.60
41922;DHT22;27609;51.002;5.354;2023-07-02T13:19:50;28.10;93.00
41922;DHT22;27609;51.002;5.354;2023-07-02T13:22:15;30.00;91.30
41922;DHT22;27609;51.002;5.354;2023-07-02T13:24:41;30.70;87.50
41922;DHT22;27609;51.002;5.354;2023-07-02T13:27:12;29.70;84.60
41922;DHT22;27609;51.002;5.354;2023-07-02T13:29:39;28.10;89.30
41922;DHT22;27609;51.002;5.354;2023-07-02T13:32:05;28.10;90.80
41922;DHT22;27609;51.002;5.354;2023-07-02T13:34:31;28.70;85.80
41922;DHT22;27609;51.002;5.354;2023-07-02T13:36:56;27.30;91.50
41922;DHT22;27609;51.002;5.354;2023-07-02T13:39:22;27.80;93.40
41922;DHT22;27609;51.002;5.354;2023-07-02T13:41:48;27.70;90.90
41922;DHT22;27609;51.002;5.354;2023-07-02T13:44:14;28.20;91.30
41922;DHT22;27609;51.002;5.354;2023-07-02T13:46:41;27.70;92.00
41922;DHT22;27609;51.002;5.354;2023-07-02T13:49:07;27.10;92.40
41922;DHT22;27609;51.002;5.354;2023-07-02T13:51:32;27.30;92.30
41922;DHT22;27609;51.002;5.354;2023-07-02T13:53:58;27.60;91.60
41922;DHT22;27609;51.002;5.354;2023-07-02T13:56:24;27.30;90.50
41922;DHT22;27609;51.002;5.354;2023-07-02T14:01:22;26.30;91.70
41922;DHT22;27609;51.002;5.354;2023-07-02T14:03:47;26.70;92.80
41922;DHT22;27609;51.002;5.354;2023-07-02T14:06:13;27.20;90.80
41922;DHT22;27609;51.002;5.354;2023-07-02T14:08:38;28.10;93.00
41922;DHT22;27609;51.002;5.354;2023-07-02T14:11:04;29.10;90.20
41922;DHT22;27609;51.002;5.354;2023-07-02T14:13:30;29.80;89.30
41922;DHT22;27609;51.002;5.354;2023-07-02T14:15:56;30.10;88.10
41922;DHT22;27609;51.002;5.354;2023-07-02T14:18:22;27.70;85.90
41922;DHT22;27609;51.002;5.354;2023-07-02T14:20:47;26.70;91.50
41922;DHT22;27609;51.002;5.354;2023-07-02T14:23:13;26.20;90.50
41922;DHT22;27609;51.002;5.354;2023-07-02T14:25:39;26.50;91.00
41922;DHT22;27609;51.002;5.354;2023-07-02T14:28:04;26.90;91.60
41922;DHT22;27609;51.002;5.354;2023-07-02T14:30:30;26.80;91.50
41922;DHT22;27609;51.002;5.354;2023-07-02T14:32:56;26.30;91.50
41922;DHT22;27609;51.002;5.354;2023-07-02T14:35:21;26.20;93.00
41922;DHT22;27609;51.002;5.354;2023-07-02T14:37:51;26.40;92.80
41922;DHT22;27609;51.002;5.354;2023-07-02T14:40:17;26.80;93.50
41922;DHT22;27609;51.002;5.354;2023-07-02T14:42:43;27.70;91.90
41922;DHT22;27609;51.002;5.354;2023-07-02T14:45:09;28.20;92.40
41922;DHT22;27609;51.002;5.354;2023-07-02T14:47:35;27.40;87.60
41922;DHT22;27609;51.002;5.354;2023-07-02T14:50:01;27.10;91.60
41922;DHT22;27609;51.002;5.354;2023-07-02T14:52:26;27.70;90.30
41922;DHT22;27609;51.002;5.354;2023-07-02T14:54:53;26.60;90.50
41922;DHT22;27609;51.002;5.354;2023-07-02T14:57:18;26.10;90.30
41922;DHT22;27609;51.002;5.354;2023-07-02T14:59:45;25.80;93.80
41922;DHT22;27609;51.002;5.354;2023-07-02T15:02:15;25.50;90.80
41922;DHT22;27609;51.002;5.354;2023-07-02T15:04:41;25.20;92.90
41922;DHT22;27609;51.002;5.354;2023-07-02T15:07:07;25.10;92.50
41922;DHT22;27609;51.002;5.354;2023-07-02T15:09:32;24.30;94.00
41922;DHT22;27609;51.002;5.354;2023-07-02T15:11:58;24.60;97.20
41922;DHT22;27609;51.002;5.354;2023-07-02T15:14:24;25.00;94.10
41922;DHT22;27609;51.002;5.354;2023-07-02T15:16:50;25.10;92.00
41922;DHT22;27609;51.002;5.354;2023-07-02T15:19:17;24.00;92.60
41922;DHT22;27609;51.002;5.354;2023-07-02T15:21:43;23.90;95.20
41922;DHT22;27609;51.002;5.354;2023-07-02T15:24:08;24.00;94.90
41922;DHT22;27609;51.002;5.354;2023-07-02T15:26:36;24.20;94.10
41922;DHT22;27609;51.002;5.354;2023-07-02T15:29:02;24.70;92.80